Time;durP1;ratioP1;P1;durP2;ratioP2;P2;SDS_P1;SDS_P2;PMS_P1;PMS_P2;Temp;Humidity;BMP_temperature;BMP_pressure;BME280_temperature;BME280_humidity;BME280_pressure;Samples;Min_cycle;Max_cycle;Signal;HPM_P1;HPM_P2
2022/09/27 00:00:15;;;;;;;37.60;20.70;;;11.30;99.90;;;;;;4932064;29;20082;-77
2022/09/27 00:02:44;;;;;;;37.53;21.45;;;11.30;99.90;;;;;;4933551;29;20051;-81
2022/09/27 00:05:12;;;;;;;36.00;18.73;;;11.30;99.90;;;;;;4933460;29;20106;-79
2022/09/27 00:07:39;;;;;;;27.20;16.25;;;11.30;99.90;;;;;;4932556;29;20501;-79
2022/09/27 00:10:08;;;;;;;29.20;14.73;;;11.30;99.90;;;;;;4931899;29;20090;-79
2022/09/27 00:12:35;;;;;;;25.63;15.73;;;11.30;99.90;;;;;;4933596;29;20539;-79
2022/09/27 00:15:03;;;;;;;24.13;14.30;;;11.30;99.90;;;;;;4932469;29;20123;-80
2022/09/27 00:17:30;;;;;;;26.05;12.75;;;11.30;99.90;;;;;;4932383;29;20048;-79
2022/09/27 00:19:59;;;;;;;16.70;11.10;;;11.30;99.90;;;;;;4933669;29;20047;-79
2022/09/27 00:22:28;;;;;;;19.15;9.85;;;11.30;99.90;;;;;;4931827;29;20052;-78
2022/09/27 00:24:55;;;;;;;13.25;8.63;;;11.30;99.90;;;;;;4933178;29;20051;-78
2022/09/27 00:27:22;;;;;;;15.60;9.05;;;11.30;99.90;;;;;;4930923;29;20062;-79
2022/09/27 00:29:49;;;;;;;13.98;8.15;;;11.30;99.90;;;;;;4931831;29;20051;-80
2022/09/27 00:32:16;;;;;;;13.85;7.45;;;11.30;99.90;;;;;;4933228;29;20052;-80
2022/09/27 00:34:44;;;;;;;8.63;7.00;;;11.30;99.90;;;;;;4914894;29;20385;-80
2022/09/27 00:37:11;;;;;;;11.05;6.57;;;11.30;99.90;;;;;;4946990;29;20047;-80
2022/09/27 00:39:40;;;;;;;9.98;5.55;;;11.30;99.90;;;;;;4932947;29;20465;-80
2022/09/27 00:42:10;;;;;;;6.97;5.47;;;11.30;99.90;;;;;;4932177;29;20047;-80
2022/09/27 00:45:11;;;;;;;6.10;4.55;;;11.20;99.90;;;;;;4935424;29;20075;-80
2022/09/27 00:47:49;;;;;;;7.88;5.47;;;11.30;99.90;;;;;;4895382;29;20234;-79
2022/09/27 00:50:25;;;;;;;11.05;5.78;;;11.20;99.90;;;;;;4919880;29;20067;-80
2022/09/27 00:53:04;;;;;;;10.18;5.90;;;11.20;99.90;;;;;;4936082;29;20134;-80
2022/09/27 00:55:36;;;;;;;8.38;5.45;;;11.20;99.90;;;;;;4937426;29;20059;-80
2022/09/27 00:58:05;;;;;;;6.22;4.45;;;11.20;99.90;;;;;;4937309;29;20058;-80
2022/09/27 01:00:33;;;;;;;6.95;4.30;;;11.20;99.90;;;;;;4919599;29;20430;-80
2022/09/27 01:03:05;;;;;;;10.05;4.60;;;11.20;99.90;;;;;;4934903;29;20046;-78
2022/09/27 01:05:32;;;;;;;10.13;5.57;;;11.20;99.90;;;;;;4935525;29;20066;-77
2022/09/27 01:08:00;;;;;;;5.88;4.75;;;11.20;99.90;;;;;;4935441;29;20048;-79
2022/09/27 01:10:32;;;;;;;11.27;4.35;;;11.20;99.90;;;;;;4935923;29;20086;-79
2022/09/27 01:13:11;;;;;;;10.60;4.57;;;11.20;99.90;;;;;;4935454;29;20083;-79
2022/09/27 01:15:43;;;;;;;6.60;4.10;;;11.20;99.90;;;;;;4935642;29;20126;-79
2022/09/27 01:18:25;;;;;;;6.57;5.07;;;11.20;99.90;;;;;;4951379;28;20059;-80
2022/09/27 01:21:17;;;;;;;5.63;4.43;;;11.20;99.90;;;;;;4934570;29;20255;-80
2022/09/27 01:24:18;;;;;;;7.40;4.50;;;11.20;99.90;;;;;;4922640;29;20406;-79
2022/09/27 01:27:17;;;;;;;5.97;4.75;;;11.20;99.90;;;;;;4919332;29;20056;-79
2022/09/27 01:29:57;;;;;;;5.15;4.65;;;11.10;99.90;;;;;;4920413;29;20054;-79
2022/09/27 01:32:34;;;;;;;7.10;5.07;;;11.10;99.90;;;;;;4936830;29;20063;-79
2022/09/27 01:35:06;;;;;;;5.95;5.07;;;11.10;99.90;;;;;;4935368;29;20052;-78
2022/09/27 01:37:44;;;;;;;10.35;5.18;;;11.10;99.90;;;;;;4935098;29;20051;-78
2022/09/27 01:40:23;;;;;;;9.20;5.22;;;11.10;99.90;;;;;;4917932;29;20059;-79
2022/09/27 01:43:21;;;;;;;6.68;5.10;;;11.10;99.90;;;;;;4933394;28;20071;-78
2022/09/27 01:45:54;;;;;;;6.93;5.30;;;11.10;99.90;;;;;;4936371;29;20047;-79
2022/09/27 01:48:45;;;;;;;10.30;5.90;;;11.10;99.90;;;;;;4932259;29;20043;-80
2022/09/27 01:51:23;;;;;;;9.48;5.60;;;11.10;99.90;;;;;;4918351;29;20130;-79
2022/09/27 01:53:54;;;;;;;8.63;5.95;;;11.10;99.90;;;;;;4934189;29;20047;-79
2022/09/27 01:56:43;;;;;;;12.45;6.00;;;11.10;99.90;;;;;;4933288;29;20039;-80
2022/09/27 01:59:21;;;;;;;8.45;5.80;;;11.10;99.90;;;;;;4918472;29;20417;-80
2022/09/27 02:02:00;;;;;;;8.20;6.53;;;11.10;99.90;;;;;;4919428;29;20054;-80
2022/09/27 02:04:39;;;;;;;12.32;6.25;;;11.10;99.90;;;;;;4918487;29;20094;-79
2022/09/27 02:07:20;;;;;;;8.95;6.60;;;11.10;99.90;;;;;;4918107;29;20056;-79
2022/09/27 02:09:54;;;;;;;11.32;6.97;;;11.10;99.90;;;;;;4933811;29;20099;-79
2022/09/27 02:12:30;;;;;;;11.95;6.75;;;11.10;99.90;;;;;;4934249;29;20054;-79
2022/09/27 02:15:00;;;;;;;10.15;7.03;;;11.10;99.90;;;;;;4933764;29;20115;-79
2022/09/27 02:17:40;;;;;;;10.85;8.10;;;11.10;99.90;;;;;;4918213;29;20055;-79
2022/09/27 02:20:16;;;;;;;10.32;7.43;;;11.20;99.90;;;;;;4917808;29;20051;-79
2022/09/27 02:22:55;;;;;;;12.40;8.10;;;11.10;99.90;;;;;;4934125;29;20099;-79
2022/09/27 02:25:27;;;;;;;8.48;7.07;;;11.10;99.90;;;;;;4926737;29;20051;-78
2022/09/27 02:28:05;;;;;;;12.23;7.80;;;11.10;99.90;;;;;;4919118;29;20052;-79
2022/09/27 02:30:34;;;;;;;14.27;7.95;;;11.00;99.90;;;;;;4918935;29;20087;-77
2022/09/27 02:33:15;;;;;;;13.38;7.18;;;11.00;99.90;;;;;;4933159;29;20055;-75
2022/09/27 02:35:44;;;;;;;16.00;8.52;;;11.00;99.90;;;;;;4933795;29;20055;-74
2022/09/27 02:38:12;;;;;;;13.00;8.40;;;11.00;99.90;;;;;;4934973;29;20139;-74
2022/09/27 02:40:44;;;;;;;9.75;7.22;;;11.00;99.90;;;;;;4934379;29;20047;-74
2022/09/27 02:43:13;;;;;;;11.55;8.82;;;11.00;99.90;;;;;;4932840;29;20051;-74
2022/09/27 02:45:53;;;;;;;13.43;7.97;;;11.00;99.90;;;;;;4933570;29;20099;-74
2022/09/27 02:48:31;;;;;;;14.30;8.10;;;11.00;99.90;;;;;;4933653;29;20044;-74
2022/09/27 02:51:21;;;;;;;17.20;7.80;;;11.00;99.90;;;;;;4929743;29;20116;-75
2022/09/27 02:54:02;;;;;;;16.23;8.88;;;11.00;99.90;;;;;;4923439;29;20119;-75
2022/09/27 02:57:01;;;;;;;17.05;8.40;;;11.00;99.90;;;;;;4934517;29;20529;-75
2022/09/27 03:00:08;;;;;;;14.30;7.88;;;11.00;99.90;;;;;;4950864;28;20059;-75
2022/09/27 03:02:55;;;;;;;16.35;9.00;;;11.00;99.90;;;;;;4920026;29;20051;-75
2022/09/27 03:05:53;;;;;;;17.88;9.73;;;11.00;99.90;;;;;;4934760;28;20056;-74
2022/09/27 03:08:22;;;;;;;15.77;8.60;;;11.00;99.90;;;;;;4916420;29;20107;-75
2022/09/27 03:10:49;;;;;;;13.18;8.35;;;11.10;99.90;;;;;;4933319;29;20044;-75
2022/09/27 03:13:16;;;;;;;11.80;7.47;;;11.10;99.90;;;;;;4934071;29;20421;-74
2022/09/27 03:15:45;;;;;;;13.73;8.50;;;11.10;99.90;;;;;;4932984;29;20054;-75
2022/09/27 03:18:32;;;;;;;11.20;8.02;;;11.20;99.90;;;;;;4933528;29;20071;-74
2022/09/27 03:21:18;;;;;;;12.93;8.38;;;11.20;99.90;;;;;;4934029;29;20048;-74
2022/09/27 03:23:48;;;;;;;13.30;8.07;;;11.20;99.90;;;;;;4932387;29;20119;-75
2022/09/27 03:26:15;;;;;;;13.88;8.30;;;11.20;99.90;;;;;;4932263;29;20043;-75
2022/09/27 03:28:43;;;;;;;18.85;9.25;;;11.20;99.90;;;;;;4944335;28;20543;-75
2022/09/27 03:31:10;;;;;;;17.58;8.90;;;11.20;99.90;;;;;;4934385;29;20059;-75
2022/09/27 03:34:03;;;;;;;14.52;8.43;;;11.20;99.90;;;;;;4932417;29;20521;-75
2022/09/27 03:36:30;;;;;;;11.30;7.63;;;11.20;99.90;;;;;;4915603;29;20079;-75
2022/09/27 03:38:59;;;;;;;12.70;8.63;;;11.20;99.90;;;;;;4932519;29;20067;-75
2022/09/27 03:41:26;;;;;;;17.92;8.63;;;11.20;99.90;;;;;;4933953;29;20048;-75
2022/09/27 03:43:56;;;;;;;15.65;9.57;;;11.10;99.90;;;;;;4932151;29;20051;-74
2022/09/27 03:46:24;;;;;;;17.05;10.07;;;11.10;99.90;;;;;;4931766;29;20151;-74
2022/09/27 03:48:51;;;;;;;13.75;9.38;;;11.00;99.90;;;;;;4932813;29;20060;-75
2022/09/27 03:51:18;;;;;;;11.65;8.90;;;11.00;99.90;;;;;;4931716;29;20122;-74
2022/09/27 03:53:45;;;;;;;12.52;8.77;;;11.00;99.90;;;;;;4931106;29;20052;-75
2022/09/27 03:56:14;;;;;;;22.55;9.40;;;11.00;99.90;;;;;;4933014;29;20052;-75
2022/09/27 03:58:42;;;;;;;13.52;8.77;;;11.00;99.90;;;;;;4932475;29;20063;-76
2022/09/27 04:01:09;;;;;;;20.88;9.18;;;11.00;99.90;;;;;;4932342;29;20052;-75
2022/09/27 04:03:38;;;;;;;14.25;8.90;;;11.00;99.90;;;;;;4930265;29;20138;-76
2022/09/27 04:06:28;;;;;;;10.93;8.27;;;11.00;99.90;;;;;;4916485;29;20187;-75
2022/09/27 04:08:55;;;;;;;14.38;8.25;;;11.00;99.90;;;;;;4932142;29;20043;-76
2022/09/27 04:11:28;;;;;;;16.83;10.38;;;11.10;99.90;;;;;;4905438;29;20147;-76
2022/09/27 04:13:56;;;;;;;17.52;8.85;;;11.10;99.90;;;;;;4932609;29;20052;-76
2022/09/27 04:16:24;;;;;;;15.07;7.95;;;11.10;99.90;;;;;;4931949;29;20062;-79
2022/09/27 04:19:20;;;;;;;20.27;8.60;;;11.10;99.90;;;;;;4938929;29;20424;-80
2022/09/27 04:21:55;;;;;;;14.27;8.68;;;11.20;99.90;;;;;;4931583;29;20115;-75
2022/09/27 04:24:22;;;;;;;12.95;8.05;;;11.20;99.90;;;;;;4935375;29;20118;-78
2022/09/27 04:27:08;;;;;;;14.25;9.10;;;11.20;99.90;;;;;;4919106;29;20055;-79
2022/09/27 04:29:41;;;;;;;31.17;8.50;;;11.20;99.90;;;;;;4930859;28;20048;-76
2022/09/27 04:32:22;;;;;;;;;;;11.20;99.90;;;;;;4930078;29;20304;-75
2022/09/27 04:38:04;;;;;;;17.17;9.50;;;11.10;99.90;;;;;;4931029;29;20043;-77
2022/09/27 04:40:34;;;;;;;15.02;9.82;;;11.10;99.90;;;;;;4949010;29;20399;-78
2022/09/27 04:43:03;;;;;;;17.50;9.35;;;11.10;99.90;;;;;;4934258;29;20044;-78
2022/09/27 04:45:31;;;;;;;16.13;9.90;;;11.10;99.90;;;;;;4939584;29;20043;-83
2022/09/27 04:48:00;;;;;;;18.23;10.25;;;11.10;99.90;;;;;;4948599;28;20046;-78
2022/09/27 04:50:33;;;;;;;18.00;10.20;;;11.10;99.90;;;;;;4940102;29;20055;-78
2022/09/27 04:53:04;;;;;;;21.08;9.32;;;11.10;99.90;;;;;;4945010;28;20075;-84
2022/09/27 04:55:31;;;;;;;22.38;8.75;;;11.20;99.90;;;;;;4935517;29;20055;-83
2022/09/27 04:58:00;;;;;;;15.85;8.25;;;11.20;99.90;;;;;;4933755;28;20051;-86
2022/09/27 05:00:30;;;;;;;17.10;8.50;;;11.20;99.90;;;;;;4933012;29;20520;-81
2022/09/27 05:03:15;;;;;;;14.80;8.73;;;11.30;99.90;;;;;;4931916;29;20063;-80
2022/09/27 05:05:54;;;;;;;16.55;9.48;;;11.30;99.90;;;;;;4930642;29;20051;-78
2022/09/27 05:08:21;;;;;;;12.77;8.98;;;11.40;99.90;;;;;;4914723;29;20051;-80
2022/09/27 05:11:21;;;;;;;18.15;9.27;;;11.50;99.90;;;;;;4933804;29;20055;-79
2022/09/27 05:14:19;;;;;;;16.83;9.23;;;11.50;99.90;;;;;;4945723;29;20079;-79
2022/09/27 05:17:08;;;;;;;30.75;11.63;;;11.60;99.90;;;;;;4922548;29;20127;-79
2022/09/27 05:19:54;;;;;;;25.33;11.38;;;11.60;99.90;;;;;;4918699;29;20540;-79
2022/09/27 05:22:48;;;;;;;33.38;13.10;;;11.60;99.90;;;;;;4917115;29;20044;-79
2022/09/27 05:25:16;;;;;;;25.08;11.25;;;11.70;99.90;;;;;;4920136;29;20054;-78
2022/09/27 05:27:43;;;;;;;42.85;15.05;;;11.70;99.90;;;;;;4913775;29;20158;-78
2022/09/27 05:30:11;;;;;;;23.48;10.75;;;11.70;99.90;;;;;;4914578;29;20051;-79
2022/09/27 05:32:49;;;;;;;32.42;12.50;;;11.80;99.90;;;;;;4933989;29;20048;-79
2022/09/27 05:35:36;;;;;;;19.73;10.23;;;11.90;99.90;;;;;;4936413;29;20658;-79
2022/09/27 05:38:04;;;;;;;20.17;10.40;;;12.00;99.90;;;;;;4935378;29;20056;-79
2022/09/27 05:40:35;;;;;;;20.02;10.38;;;12.00;99.90;;;;;;4935175;29;20052;-79
2022/09/27 05:43:02;;;;;;;26.58;10.50;;;12.00;99.90;;;;;;4934002;29;20123;-78
2022/09/27 05:45:29;;;;;;;23.13;10.63;;;12.10;99.90;;;;;;4935099;29;20051;-79
2022/09/27 05:48:04;;;;;;;17.48;10.63;;;12.20;99.90;;;;;;4934851;29;20043;-79
2022/09/27 05:50:35;;;;;;;;;;;12.20;99.90;;;;;;4919560;29;20099;-79
2022/09/27 05:53:03;;;;;;;24.00;10.27;;;12.20;99.90;;;;;;4934091;29;19976;-79
2022/09/27 05:55:30;;;;;;;22.48;10.15;;;12.40;99.90;;;;;;4935053;29;20043;-81
2022/09/27 05:57:59;;;;;;;27.65;9.73;;;12.60;99.90;;;;;;4934693;29;20055;-79
2022/09/27 06:00:35;;;;;;;15.45;8.05;;;12.80;99.90;;;;;;4933675;29;20381;-79
2022/09/27 06:03:08;;;;;;;12.20;8.85;;;12.90;99.90;;;;;;4934804;29;20043;-80
2022/09/27 06:06:04;;;;;;;13.95;7.85;;;13.00;99.90;;;;;;4949720;28;20092;-78
2022/09/27 06:08:42;;;;;;;15.95;8.45;;;12.90;99.90;;;;;;4934432;29;20044;-78
2022/09/27 06:11:13;;;;;;;16.83;10.68;;;12.80;99.90;;;;;;4918149;29;20081;-78
2022/09/27 06:13:41;;;;;;;15.48;9.77;;;12.80;99.90;;;;;;4935019;29;20134;-78
2022/09/27 06:16:12;;;;;;;15.27;9.95;;;12.90;99.90;;;;;;4933507;29;20519;-77
2022/09/27 06:18:43;;;;;;;19.38;9.20;;;12.90;99.90;;;;;;4933706;29;20051;-78
2022/09/27 06:21:13;;;;;;;20.17;13.32;;;13.10;99.90;;;;;;4934397;29;20051;-78
2022/09/27 06:23:44;;;;;;;;;;;13.20;99.90;;;;;;4952179;28;20047;-79
2022/09/27 06:26:20;;;;;;;31.42;15.82;;;13.20;99.90;;;;;;4935616;29;19957;-78
2022/09/27 06:29:07;;;;;;;20.17;14.82;;;13.10;99.90;;;;;;4935729;29;20054;-76
2022/09/27 06:31:37;;;;;;;23.05;14.68;;;13.10;99.90;;;;;;4936062;29;20085;-79
2022/09/27 06:34:24;;;;;;;27.15;16.05;;;13.20;99.90;;;;;;4935358;29;20203;-78
2022/09/27 06:36:52;;;;;;;20.52;14.45;;;13.20;99.90;;;;;;4934653;29;20225;-78
2022/09/27 06:39:20;;;;;;;20.85;13.38;;;13.40;99.90;;;;;;4935283;29;20528;-78
2022/09/27 06:41:56;;;;;;;16.88;12.82;;;13.40;99.90;;;;;;4919240;29;20063;-78
2022/09/27 06:44:50;;;;;;;16.50;12.98;;;13.50;99.90;;;;;;4942254;29;20058;-79
2022/09/27 06:47:36;;;;;;;18.75;11.60;;;13.60;99.90;;;;;;4929064;29;20055;-78
2022/09/27 06:50:19;;;;;;;15.25;12.60;;;13.70;99.90;;;;;;4934784;29;20070;-76
2022/09/27 06:52:50;;;;;;;18.90;13.77;;;13.90;99.90;;;;;;4918532;29;20489;-76
2022/09/27 06:55:18;;;;;;;21.33;13.47;;;14.20;99.90;;;;;;4933177;29;20048;-76
2022/09/27 07:00:31;;;;;;;15.25;9.00;;;15.10;99.90;;;;;;4954500;28;20521;-76
2022/09/27 07:03:18;;;;;;;15.73;8.20;;;15.20;99.90;;;;;;4936130;29;20130;-75
2022/09/27 07:06:07;;;;;;;12.57;9.25;;;15.40;99.90;;;;;;4935633;29;20091;-76
2022/09/27 07:08:44;;;;;;;13.50;7.97;;;15.40;99.90;;;;;;4934854;29;20067;-80
2022/09/27 07:11:14;;;;;;;13.25;8.63;;;15.30;99.90;;;;;;4934173;29;20063;-76
2022/09/27 07:13:44;;;;;;;13.88;8.80;;;15.50;99.90;;;;;;4934277;29;20087;-78
2022/09/27 07:16:14;;;;;;;17.08;8.65;;;15.70;99.90;;;;;;4916215;29;20079;-78
2022/09/27 07:18:42;;;;;;;16.13;8.48;;;16.00;99.90;;;;;;4930946;29;20107;-77
2022/09/27 07:21:12;;;;;;;10.90;7.55;;;16.90;99.90;;;;;;4933176;29;20139;-77
2022/09/27 07:23:40;;;;;;;11.20;7.30;;;17.70;99.90;;;;;;4924518;29;20055;-77
2022/09/27 07:26:11;;;;;;;12.93;7.68;;;18.70;99.90;;;;;;4902191;29;20497;-77
2022/09/27 07:28:40;;;;;;;12.75;7.40;;;18.90;99.90;;;;;;4914315;29;20056;-78
2022/09/27 07:31:08;;;;;;;9.88;6.40;;;18.70;99.90;;;;;;4916717;29;20051;-80
2022/09/27 07:33:36;;;;;;;12.05;7.07;;;18.60;99.90;;;;;;4932823;29;20094;-79
2022/09/27 07:36:07;;;;;;;11.00;6.85;;;18.60;99.90;;;;;;4934267;29;20091;-78
2022/09/27 07:38:37;;;;;;;;;;;18.70;99.90;;;;;;4933435;29;20086;-77
2022/09/27 07:41:09;;;;;;;16.58;7.32;;;18.70;99.90;;;;;;4931824;29;20319;-77
2022/09/27 07:43:37;;;;;;;12.05;6.45;;;18.60;99.90;;;;;;4925079;29;20338;-77
2022/09/27 07:46:05;;;;;;;14.38;7.03;;;18.40;99.90;;;;;;4947749;29;20141;-76
2022/09/27 07:48:58;;;;;;;11.18;6.20;;;17.90;99.90;;;;;;4947562;28;20524;-77
2022/09/27 07:51:44;;;;;;;17.60;6.00;;;17.40;99.90;;;;;;4948619;28;20050;-77
2022/09/27 07:54:29;;;;;;;6.85;5.20;;;17.80;99.90;;;;;;4961129;28;20043;-77
2022/09/27 07:57:06;;;;;;;7.97;5.25;;;18.70;99.90;;;;;;4949148;29;20572;-77
2022/09/27 07:59:41;;;;;;;6.88;4.68;;;18.80;99.90;;;;;;4928297;29;20043;-77
2022/09/27 08:02:15;;;;;;;4.80;3.60;;;19.10;99.90;;;;;;4944703;29;20115;-77
2022/09/27 08:04:45;;;;;;;3.77;3.23;;;19.00;99.90;;;;;;4931457;29;20047;-76
2022/09/27 08:07:14;;;;;;;6.68;3.08;;;19.00;99.90;;;;;;4932196;29;20373;-77
2022/09/27 08:09:45;;;;;;;4.93;3.58;;;20.30;99.90;;;;;;4927354;29;20131;-79
2022/09/27 08:12:13;;;;;;;4.47;3.70;;;21.80;98.40;;;;;;4942283;28;20115;-78
2022/09/27 08:14:40;;;;;;;4.70;2.70;;;22.80;93.00;;;;;;4913909;29;20504;-86
2022/09/27 08:17:10;;;;;;;5.72;2.88;;;23.30;90.80;;;;;;4932207;29;20150;-87
2022/09/27 08:19:56;;;;;;;4.78;3.17;;;23.40;83.30;;;;;;4932390;29;20604;-86
2022/09/27 08:22:43;;;;;;;3.95;3.45;;;22.60;82.10;;;;;;4918792;29;20533;-86
2022/09/27 08:25:36;;;;;;;5.07;3.40;;;21.30;84.90;;;;;;4927087;29;20062;-87
2022/09/27 08:28:41;;;;;;;8.02;2.80;;;20.20;90.40;;;;;;4949192;28;20416;-87
2022/09/27 08:31:18;;;;;;;3.05;2.42;;;19.20;91.70;;;;;;4932484;28;20614;-85
2022/09/27 08:33:49;;;;;;;2.67;2.25;;;18.90;91.00;;;;;;4923874;29;20063;-86
2022/09/27 08:36:16;;;;;;;5.00;2.83;;;19.40;92.70;;;;;;4931246;29;20055;-86
2022/09/27 08:38:43;;;;;;;4.97;2.28;;;20.90;91.50;;;;;;4933120;29;20055;-85
2022/09/27 08:41:23;;;;;;;2.90;2.05;;;22.50;84.60;;;;;;4933279;29;20134;-87
2022/09/27 08:43:59;;;;;;;5.00;2.00;;;23.80;79.20;;;;;;4931362;29;20051;-85
2022/09/27 08:46:37;;;;;;;2.50;1.48;;;25.30;72.80;;;;;;4932212;29;20087;-85
2022/09/27 08:49:09;;;;;;;2.35;1.80;;;26.30;66.50;;;;;;4929856;29;20154;-84
2022/09/27 08:51:37;;;;;;;;;;;27.00;60.50;;;;;;4932088;29;20119;-83
2022/09/27 08:54:08;;;;;;;2.60;1.45;;;27.10;57.80;;;;;;4931036;29;20382;-83
2022/09/27 08:56:37;;;;;;;2.63;1.33;;;27.00;58.00;;;;;;4932232;29;20525;-82
2022/09/27 08:59:12;;;;;;;3.00;1.63;;;27.00;56.70;;;;;;4915819;29;20051;-82
2022/09/27 09:01:40;;;;;;;1.05;1.00;;;27.30;58.30;;;;;;4931402;29;20059;-84
2022/09/27 09:04:19;;;;;;;5.38;1.73;;;27.40;58.90;;;;;;4931778;29;20103;-84
2022/09/27 09:06:55;;;;;;;2.20;1.30;;;27.70;56.10;;;;;;4935874;29;20050;-81
2022/09/27 09:09:35;;;;;;;1.40;1.30;;;27.90;52.40;;;;;;4934042;29;20060;-83
2022/09/27 09:12:46;;;;;;;5.47;1.30;;;27.80;55.30;;;;;;4949058;29;20058;-84
2022/09/27 09:15:21;;;;;;;3.78;1.30;;;28.10;56.00;;;;;;4935394;29;20517;-84
2022/09/27 09:18:09;;;;;;;4.55;4.25;;;28.70;53.30;;;;;;4934041;29;20044;-84
2022/09/27 09:21:27;;;;;;;5.15;1.35;;;29.20;52.90;;;;;;4933627;29;20051;-84
2022/09/27 09:24:08;;;;;;;2.50;2.28;;;29.00;50.70;;;;;;4933691;29;20555;-83
2022/09/27 09:26:43;;;;;;;6.45;3.15;;;29.00;50.70;;;;;;4944183;29;20059;-84
2022/09/27 09:29:36;;;;;;;2.53;1.30;;;29.10;49.60;;;;;;4934980;29;20489;-82
2022/09/27 09:32:15;;;;;;;1.65;1.10;;;28.60;49.40;;;;;;4934562;29;20095;-83
2022/09/27 09:34:47;;;;;;;3.35;1.15;;;26.70;49.90;;;;;;4949823;29;20509;-82
2022/09/27 09:37:20;;;;;;;2.38;0.90;;;24.90;52.30;;;;;;4946204;29;20047;-80
2022/09/27 09:39:50;;;;;;;;;;;23.30;55.70;;;;;;4915779;29;20055;-82
2022/09/27 09:42:24;;;;;;;4.03;1.63;;;21.90;55.80;;;;;;4934402;29;19927;-80
2022/09/27 09:47:42;;;;;;;4.13;1.23;;;20.60;58.40;;;;;;5105317;27;20415;-76
2022/09/27 09:50:18;;;;;;;4.20;1.25;;;19.90;61.40;;;;;;5054129;28;20508;-76
2022/09/27 09:52:48;;;;;;;3.55;1.20;;;20.10;64.30;;;;;;5100331;28;20055;-76
2022/09/27 09:55:19;;;;;;;4.20;1.40;;;21.40;58.80;;;;;;5081250;28;20190;-75
2022/09/27 09:58:01;;;;;;;3.05;1.50;;;23.20;61.20;;;;;;5063710;28;20055;-75
2022/09/27 10:00:34;;;;;;;0.80;0.80;;;24.90;55.60;;;;;;5073349;28;20123;-76
2022/09/27 10:03:03;;;;;;;3.40;1.27;;;26.50;50.80;;;;;;5057879;28;20044;-75
2022/09/27 10:05:32;;;;;;;1.90;1.50;;;27.40;48.90;;;;;;5086404;28;20134;-75
2022/09/27 10:08:14;;;;;;;2.75;1.38;;;27.40;48.80;;;;;;5076186;28;20055;-76
2022/09/27 10:10:41;;;;;;;2.00;1.70;;;27.00;49.20;;;;;;5055183;28;20072;-75
2022/09/27 10:13:35;;;;;;;2.20;1.75;;;25.70;50.80;;;;;;5082977;28;20060;-75
2022/09/27 10:16:07;;;;;;;3.33;1.50;;;24.40;51.40;;;;;;5086011;28;20045;-75
2022/09/27 10:18:40;;;;;;;7.68;2.17;;;23.20;55.00;;;;;;5068704;28;20055;-75
2022/09/27 10:21:14;;;;;;;2.80;1.30;;;22.80;56.90;;;;;;5083826;28;20152;-74
2022/09/27 10:24:04;;;;;;;7.88;1.90;;;22.80;55.40;;;;;;5069527;28;20593;-75
2022/09/27 10:27:10;;;;;;;4.13;1.30;;;23.10;56.80;;;;;;5034897;28;20131;-75
2022/09/27 10:29:40;;;;;;;7.18;1.80;;;23.10;57.00;;;;;;5012789;28;20091;-74
2022/09/27 10:32:24;;;;;;;2.17;1.50;;;22.80;58.30;;;;;;5054343;28;20139;-73
2022/09/27 10:35:31;;;;;;;1.98;1.13;;;22.50;56.00;;;;;;5058926;28;20159;-74
2022/09/27 10:38:21;;;;;;;1.43;1.33;;;22.30;54.30;;;;;;5076947;28;20053;-74
2022/09/27 10:40:49;;;;;;;1.88;1.63;;;21.50;55.80;;;;;;5073012;28;20060;-74
2022/09/27 10:43:31;;;;;;;1.33;1.23;;;20.90;57.60;;;;;;5066965;28;20049;-75
2022/09/27 10:46:23;;;;;;;5.65;5.03;;;20.40;58.70;;;;;;5071480;28;20087;-74
2022/09/27 10:49:12;;;;;;;4.82;2.78;;;19.80;59.60;;;;;;5075372;28;20083;-72
2022/09/27 10:51:43;;;;;;;3.33;2.30;;;19.30;61.40;;;;;;5073358;28;20135;-73
2022/09/27 10:54:39;;;;;;;4.40;1.75;;;18.80;65.20;;;;;;5066165;28;20664;-75
2022/09/27 10:57:20;;;;;;;3.85;1.90;;;18.40;63.20;;;;;;5078001;28;20045;-76
2022/09/27 10:59:53;;;;;;;2.63;1.58;;;18.00;65.20;;;;;;5065785;28;20067;-74
2022/09/27 11:02:30;;;;;;;3.20;1.90;;;17.70;67.30;;;;;;5071212;28;20151;-75
2022/09/27 11:05:33;;;;;;;9.82;3.72;;;17.40;67.30;;;;;;5070791;28;20045;-75
2022/09/27 11:08:21;;;;;;;6.07;2.67;;;17.00;69.00;;;;;;5070037;28;20063;-75
2022/09/27 11:11:20;;;;;;;4.25;2.03;;;16.80;70.40;;;;;;5072297;28;20057;-73
2022/09/27 11:13:59;;;;;;;2.40;1.90;;;16.70;71.30;;;;;;5072049;28;20114;-74
2022/09/27 11:16:40;;;;;;;4.00;1.65;;;16.70;70.40;;;;;;5069267;28;20048;-73
2022/09/27 11:19:27;;;;;;;4.00;1.73;;;16.60;70.30;;;;;;5054799;28;20059;-74
2022/09/27 11:22:07;;;;;;;3.67;1.80;;;16.50;70.90;;;;;;5055118;28;20050;-74
2022/09/27 11:24:50;;;;;;;2.45;2.13;;;16.50;72.40;;;;;;5069510;28;20047;-72
2022/09/27 11:27:30;;;;;;;1.83;1.38;;;16.60;73.90;;;;;;5071102;28;20145;-73
2022/09/27 11:30:09;;;;;;;1.80;1.70;;;16.50;71.80;;;;;;5055346;28;20614;-74
2022/09/27 11:33:31;;;;;;;2.13;1.55;;;16.40;71.40;;;;;;5054866;28;20049;-74
2022/09/27 11:36:06;;;;;;;1.27;1.17;;;16.30;74.60;;;;;;5056720;28;20092;-75
2022/09/27 11:38:45;;;;;;;15.75;2.25;;;16.30;77.20;;;;;;5077858;28;20064;-74
2022/09/27 11:41:34;;;;;;;2.65;1.58;;;16.30;80.50;;;;;;5069841;28;20056;-75
2022/09/27 11:44:26;;;;;;;1.52;1.40;;;16.30;82.30;;;;;;5052817;28;20532;-74
2022/09/27 11:47:02;;;;;;;3.97;1.60;;;16.30;82.10;;;;;;5037389;28;20060;-74
2022/09/27 11:49:57;;;;;;;3.00;1.50;;;16.40;80.20;;;;;;5062052;28;20075;-73
2022/09/27 11:52:39;;;;;;;1.75;1.17;;;16.50;78.10;;;;;;5048913;28;20516;-74
2022/09/27 11:55:19;;;;;;;3.58;1.60;;;16.50;76.60;;;;;;5050783;28;20056;-75
2022/09/27 11:57:59;;;;;;;1.83;1.60;;;16.40;77.00;;;;;;5049114;28;20056;-75
2022/09/27 12:00:44;;;;;;;2.25;1.60;;;16.40;79.00;;;;;;5064340;28;20056;-74
2022/09/27 12:03:52;;;;;;;1.00;0.90;;;16.40;81.90;;;;;;5070686;28;20051;-82
2022/09/27 12:06:25;;;;;;;1.65;1.08;;;16.30;81.30;;;;;;5041904;28;20056;-82
2022/09/27 12:09:04;;;;;;;3.97;1.40;;;16.20;81.30;;;;;;5064720;28;20072;-82
2022/09/27 12:11:38;;;;;;;1.30;1.10;;;16.10;77.90;;;;;;5066781;28;20060;-80
2022/09/27 12:14:21;;;;;;;2.63;1.27;;;16.10;79.90;;;;;;5069409;28;20044;-80
2022/09/27 12:16:52;;;;;;;2.67;1.10;;;16.10;80.30;;;;;;5069884;28;20118;-83
2022/09/27 12:19:25;;;;;;;2.47;1.10;;;16.20;79.10;;;;;;5097439;28;20056;-80
2022/09/27 12:22:16;;;;;;;4.38;1.42;;;16.20;79.50;;;;;;5065599;28;20056;-81
2022/09/27 12:24:46;;;;;;;2.63;1.35;;;16.30;77.40;;;;;;5063673;28;20583;-81
2022/09/27 12:27:38;;;;;;;3.47;1.92;;;16.30;79.00;;;;;;5066693;28;20049;-81
2022/09/27 12:30:13;;;;;;;2.33;2.03;;;16.40;80.10;;;;;;5069944;28;20048;-80
2022/09/27 12:32:53;;;;;;;2.53;1.38;;;16.50;79.00;;;;;;5064848;28;20052;-80
2022/09/27 12:35:25;;;;;;;1.27;1.15;;;16.60;81.40;;;;;;5069727;28;20048;-79
2022/09/27 12:37:59;;;;;;;4.05;1.50;;;16.60;80.00;;;;;;5069762;28;20079;-79
2022/09/27 12:40:31;;;;;;;2.13;1.30;;;16.60;81.10;;;;;;5064268;28;20080;-79
2022/09/27 12:43:07;;;;;;;1.40;1.30;;;16.60;81.80;;;;;;5069680;28;20098;-82
2022/09/27 12:46:08;;;;;;;1.50;1.40;;;16.60;80.80;;;;;;5059538;28;20155;-83
2022/09/27 12:48:43;;;;;;;5.30;1.30;;;16.50;78.50;;;;;;5061724;28;20044;-80
2022/09/27 12:51:13;;;;;;;3.58;1.50;;;16.50;80.10;;;;;;5044590;28;20049;-80
2022/09/27 12:53:57;;;;;;;3.38;1.25;;;16.50;81.30;;;;;;5063153;28;20075;-83
2022/09/27 12:56:31;;;;;;;;;;;16.80;81.60;;;;;;5064817;28;20102;-80
2022/09/27 12:59:35;;;;;;;3.13;1.20;;;17.00;79.80;;;;;;5066040;28;19924;-81
2022/09/27 13:02:38;;;;;;;1.58;1.33;;;17.00;80.30;;;;;;5070589;28;20425;-81
2022/09/27 13:05:26;;;;;;;1.85;1.17;;;16.80;80.00;;;;;;5064919;28;20052;-73
2022/09/27 13:08:05;;;;;;;3.58;1.35;;;16.70;82.00;;;;;;5063292;28;20565;-74
2022/09/27 13:10:46;;;;;;;3.00;1.63;;;16.50;81.70;;;;;;5066999;28;20481;-75
2022/09/27 13:13:28;;;;;;;2.47;1.57;;;16.40;83.10;;;;;;5051825;28;20056;-76
2022/09/27 13:15:59;;;;;;;4.63;2.00;;;16.30;82.60;;;;;;5060064;28;20310;-74
2022/09/27 13:18:48;;;;;;;1.33;1.23;;;16.20;85.40;;;;;;5061179;28;20313;-74
2022/09/27 13:21:59;;;;;;;2.22;1.63;;;16.10;83.90;;;;;;5066939;28;20520;-77
2022/09/27 13:24:45;;;;;;;5.05;2.72;;;16.00;85.10;;;;;;5064797;28;20076;-72
2022/09/27 13:27:40;;;;;;;4.10;1.50;;;15.90;87.20;;;;;;5062876;28;20056;-72
2022/09/27 13:30:49;;;;;;;3.55;3.22;;;15.90;82.90;;;;;;5060405;28;20052;-75
2022/09/27 13:33:44;;;;;;;3.60;1.65;;;15.80;84.90;;;;;;5065151;28;20055;-73
2022/09/27 13:36:29;;;;;;;2.15;1.95;;;15.80;85.40;;;;;;5083435;28;20418;-74
2022/09/27 13:39:06;;;;;;;2.35;2.15;;;15.90;84.00;;;;;;5048382;28;20055;-73
2022/09/27 13:42:08;;;;;;;2.45;1.83;;;15.90;82.00;;;;;;5051566;28;20043;-73
2022/09/27 13:44:47;;;;;;;1.50;1.40;;;15.80;85.70;;;;;;5047834;28;20053;-73